aviador You're here:

LETU Decoded Metar

in
Report Time2018-06-24 22:30:00
UTC Time2018-06-24 22:48:19
Flight Rules vfr VFR
Wind290° at 09 kt
W.Rank290° ranks 5
Current wind is above 290° avg. (8.0)
Visibility9999 m
Phenomena:N/A
Clouds:N/A
Expected CloudBase > 5,600 ft AGL from Temp-Dew spread
CeilingNone
Temp24°C
Dew Point10°C (41% RH)
AAT20.8°C
QNH1017 hPa
Raw Report
METAR LETU 242230Z AUTO 29009KT 9999 NCD 24/10 Q1017=####018000574####
SAIN31 VOMM 242230

Extra information for LETU:More info

Social comments